sensor_id;sensor_type;location;lat;lon;timestamp;temperature;humidity
63899;HTU21D;50070;-32.946;-60.652;2022-11-20T00:01:18;30.35;30.93
63899;HTU21D;50070;-32.946;-60.652;2022-11-20T00:03:45;30.19;31.74
63899;HTU21D;50070;-32.946;-60.652;2022-11-20T00:06:14;30.26;31.22
63899;HTU21D;50070;-32.946;-60.652;2022-11-20T00:08:42;30.30;31.40
63899;HTU21D;50070;-32.946;-60.652;2022-11-20T00:11:19;30.18;32.96
63899;HTU21D;50070;-32.946;-60.652;2022-11-20T00:13:48;30.08;33.05
63899;HTU21D;50070;-32.946;-60.652;2022-11-20T00:16:17;30.23;31.74
63899;HTU21D;50070;-32.946;-60.652;2022-11-20T00:18:44;30.04;32.38
63899;HTU21D;50070;-32.946;-60.652;2022-11-20T00:21:16;30.10;32.08
63899;HTU21D;50070;-32.946;-60.652;2022-11-20T00:23:44;30.06;32.34
63899;HTU21D;50070;-32.946;-60.652;2022-11-20T00:26:13;30.00;32.55
63899;HTU21D;50070;-32.946;-60.652;2022-11-20T00:28:42;30.02;32.24
63899;HTU21D;50070;-32.946;-60.652;2022-11-20T00:31:11;30.10;32.12
63899;HTU21D;50070;-32.946;-60.652;2022-11-20T00:33:38;30.08;32.60
63899;HTU21D;50070;-32.946;-60.652;2022-11-20T00:36:10;30.09;32.76
63899;HTU21D;50070;-32.946;-60.652;2022-11-20T00:38:37;29.93;32.57
63899;HTU21D;50070;-32.946;-60.652;2022-11-20T00:41:06;29.98;33.00
63899;HTU21D;50070;-32.946;-60.652;2022-11-20T00:43:33;29.96;32.93
63899;HTU21D;50070;-32.946;-60.652;2022-11-20T00:46:01;30.08;33.12
63899;HTU21D;50070;-32.946;-60.652;2022-11-20T00:48:28;30.06;32.97
63899;HTU21D;50070;-32.946;-60.652;2022-11-20T00:50:54;30.03;33.02
63899;HTU21D;50070;-32.946;-60.652;2022-11-20T00:53:22;30.02;33.02
63899;HTU21D;50070;-32.946;-60.652;2022-11-20T00:56:05;30.04;32.81
63899;HTU21D;50070;-32.946;-60.652;2022-11-20T00:58:35;30.19;32.44
63899;HTU21D;50070;-32.946;-60.652;2022-11-20T01:01:06;30.20;32.31
63899;HTU21D;50070;-32.946;-60.652;2022-11-20T01:03:36;30.27;31.39
63899;HTU21D;50070;-32.946;-60.652;2022-11-20T01:06:05;30.35;31.00
63899;HTU21D;50070;-32.946;-60.652;2022-11-20T01:08:33;30.33;32.05
63899;HTU21D;50070;-32.946;-60.652;2022-11-20T01:11:21;30.18;32.97
63899;HTU21D;50070;-32.946;-60.652;2022-11-20T01:13:49;30.12;33.19
63899;HTU21D;50070;-32.946;-60.652;2022-11-20T01:16:26;29.92;33.76
63899;HTU21D;50070;-32.946;-60.652;2022-11-20T01:18:57;29.94;33.95
63899;HTU21D;50070;-32.946;-60.652;2022-11-20T01:21:29;29.89;34.11
63899;HTU21D;50070;-32.946;-60.652;2022-11-20T01:23:57;29.92;34.18
63899;HTU21D;50070;-32.946;-60.652;2022-11-20T01:26:28;29.71;34.79
63899;HTU21D;50070;-32.946;-60.652;2022-11-20T01:28:55;29.41;35.55
63899;HTU21D;50070;-32.946;-60.652;2022-11-20T01:31:24;29.41;35.59
63899;HTU21D;50070;-32.946;-60.652;2022-11-20T01:33:54;29.38;35.84
63899;HTU21D;50070;-32.946;-60.652;2022-11-20T01:36:22;29.47;35.89
63899;HTU21D;50070;-32.946;-60.652;2022-11-20T01:38:53;29.30;36.51
63899;HTU21D;50070;-32.946;-60.652;2022-11-20T01:41:21;29.28;36.96
63899;HTU21D;50070;-32.946;-60.652;2022-11-20T01:44:06;29.01;37.75
63899;HTU21D;50070;-32.946;-60.652;2022-11-20T01:46:35;28.79;38.10
63899;HTU21D;50070;-32.946;-60.652;2022-11-20T01:51:33;28.97;38.11
63899;HTU21D;50070;-32.946;-60.652;2022-11-20T01:54:05;28.83;38.73
63899;HTU21D;50070;-32.946;-60.652;2022-11-20T01:56:38;28.63;39.59
63899;HTU21D;50070;-32.946;-60.652;2022-11-20T01:59:07;28.10;41.27
63899;HTU21D;50070;-32.946;-60.652;2022-11-20T02:01:35;28.15;41.34
63899;HTU21D;50070;-32.946;-60.652;2022-11-20T02:04:02;28.15;41.71
63899;HTU21D;50070;-32.946;-60.652;2022-11-20T02:06:32;28.15;41.78
63899;HTU21D;50070;-32.946;-60.652;2022-11-20T02:09:01;28.13;41.62
63899;HTU21D;50070;-32.946;-60.652;2022-11-20T02:11:30;27.70;42.61
63899;HTU21D;50070;-32.946;-60.652;2022-11-20T02:13:58;27.91;42.01
63899;HTU21D;50070;-32.946;-60.652;2022-11-20T02:16:31;28.08;41.44
63899;HTU21D;50070;-32.946;-60.652;2022-11-20T02:19:01;28.11;40.80
63899;HTU21D;50070;-32.946;-60.652;2022-11-20T02:24:15;28.05;40.96
63899;HTU21D;50070;-32.946;-60.652;2022-11-20T02:26:53;27.83;41.26
63899;HTU21D;50070;-32.946;-60.652;2022-11-20T02:32:00;27.74;41.29
63899;HTU21D;50070;-32.946;-60.652;2022-11-20T02:34:27;27.89;40.84
63899;HTU21D;50070;-32.946;-60.652;2022-11-20T02:36:55;27.80;41.00
63899;HTU21D;50070;-32.946;-60.652;2022-11-20T02:39:24;27.84;40.91
63899;HTU21D;50070;-32.946;-60.652;2022-11-20T02:41:53;27.71;41.25
63899;HTU21D;50070;-32.946;-60.652;2022-11-20T02:44:20;27.98;40.61
63899;HTU21D;50070;-32.946;-60.652;2022-11-20T02:46:47;28.11;40.33
63899;HTU21D;50070;-32.946;-60.652;2022-11-20T02:49:14;28.26;40.05
63899;HTU21D;50070;-32.946;-60.652;2022-11-20T02:51:41;28.10;40.47
63899;HTU21D;50070;-32.946;-60.652;2022-11-20T02:54:08;28.15;40.17
63899;HTU21D;50070;-32.946;-60.652;2022-11-20T02:56:38;27.97;40.65
63899;HTU21D;50070;-32.946;-60.652;2022-11-20T02:59:05;27.91;40.68
63899;HTU21D;50070;-32.946;-60.652;2022-11-20T03:01:32;28.27;40.08
63899;HTU21D;50070;-32.946;-60.652;2022-11-20T03:03:58;28.23;40.16
63899;HTU21D;50070;-32.946;-60.652;2022-11-20T03:06:25;28.31;39.88
63899;HTU21D;50070;-32.946;-60.652;2022-11-20T03:08:52;28.29;39.89
63899;HTU21D;50070;-32.946;-60.652;2022-11-20T03:11:18;28.16;40.05
63899;HTU21D;50070;-32.946;-60.652;2022-11-20T03:13:45;28.14;40.18
63899;HTU21D;50070;-32.946;-60.652;2022-11-20T03:16:15;28.12;40.39
63899;HTU21D;50070;-32.946;-60.652;2022-11-20T03:18:42;28.17;40.31
63899;HTU21D;50070;-32.946;-60.652;2022-11-20T03:21:10;28.48;39.62
63899;HTU21D;50070;-32.946;-60.652;2022-11-20T03:23:38;28.54;39.50
63899;HTU21D;50070;-32.946;-60.652;2022-11-20T03:26:20;28.30;39.94
63899;HTU21D;50070;-32.946;-60.652;2022-11-20T03:28:50;28.31;39.96
63899;HTU21D;50070;-32.946;-60.652;2022-11-20T03:31:19;28.30;39.97
63899;HTU21D;50070;-32.946;-60.652;2022-11-20T03:33:47;28.34;39.72
63899;HTU21D;50070;-32.946;-60.652;2022-11-20T03:36:15;28.55;39.13
63899;HTU21D;50070;-32.946;-60.652;2022-11-20T03:38:43;28.26;40.42
63899;HTU21D;50070;-32.946;-60.652;2022-11-20T03:41:13;28.03;41.96
63899;HTU21D;50070;-32.946;-60.652;2022-11-20T03:43:40;27.96;43.32
63899;HTU21D;50070;-32.946;-60.652;2022-11-20T03:46:08;28.02;43.36
63899;HTU21D;50070;-32.946;-60.652;2022-11-20T03:48:34;28.43;42.30
63899;HTU21D;50070;-32.946;-60.652;2022-11-20T03:51:18;28.04;42.43
63899;HTU21D;50070;-32.946;-60.652;2022-11-20T03:53:47;28.23;44.36
63899;HTU21D;50070;-32.946;-60.652;2022-11-20T03:56:16;28.39;45.79
63899;HTU21D;50070;-32.946;-60.652;2022-11-20T03:58:43;28.35;44.00
63899;HTU21D;50070;-32.946;-60.652;2022-11-20T04:01:16;28.34;44.51
63899;HTU21D;50070;-32.946;-60.652;2022-11-20T04:03:43;28.27;43.77
63899;HTU21D;50070;-32.946;-60.652;2022-11-20T04:06:37;27.94;47.74
63899;HTU21D;50070;-32.946;-60.652;2022-11-20T04:09:05;27.89;45.11
63899;HTU21D;50070;-32.946;-60.652;2022-11-20T04:11:32;27.87;46.67
63899;HTU21D;50070;-32.946;-60.652;2022-11-20T04:14:01;27.74;48.61
63899;HTU21D;50070;-32.946;-60.652;2022-11-20T04:16:34;27.66;50.63
63899;HTU21D;50070;-32.946;-60.652;2022-11-20T04:19:03;27.67;52.38
63899;HTU21D;50070;-32.946;-60.652;2022-11-20T04:21:30;27.93;50.55
63899;HTU21D;50070;-32.946;-60.652;2022-11-20T04:23:57;28.01;50.37
63899;HTU21D;50070;-32.946;-60.652;2022-11-20T04:26:26;27.53;53.78
63899;HTU21D;50070;-32.946;-60.652;2022-11-20T04:28:52;27.28;54.68
63899;HTU21D;50070;-32.946;-60.652;2022-11-20T04:31:21;27.25;53.49
63899;HTU21D;50070;-32.946;-60.652;2022-11-20T04:33:48;27.52;51.69
63899;HTU21D;50070;-32.946;-60.652;2022-11-20T04:36:17;27.61;49.40
63899;HTU21D;50070;-32.946;-60.652;2022-11-20T04:38:45;27.57;49.52
63899;HTU21D;50070;-32.946;-60.652;2022-11-20T04:41:17;27.43;50.71
63899;HTU21D;50070;-32.946;-60.652;2022-11-20T04:43:51;26.78;50.51
63899;HTU21D;50070;-32.946;-60.652;2022-11-20T04:46:19;26.72;49.50
63899;HTU21D;50070;-32.946;-60.652;2022-11-20T04:48:46;26.84;47.14
63899;HTU21D;50070;-32.946;-60.652;2022-11-20T04:51:13;26.99;45.77
63899;HTU21D;50070;-32.946;-60.652;2022-11-20T04:53:41;26.82;46.67
63899;HTU21D;50070;-32.946;-60.652;2022-11-20T04:56:09;27.19;43.34
63899;HTU21D;50070;-32.946;-60.652;2022-11-20T04:58:37;27.16;44.78
63899;HTU21D;50070;-32.946;-60.652;2022-11-20T05:01:20;27.26;42.93
63899;HTU21D;50070;-32.946;-60.652;2022-11-20T05:03:47;27.37;42.07
63899;HTU21D;50070;-32.946;-60.652;2022-11-20T05:06:17;27.65;42.90
63899;HTU21D;50070;-32.946;-60.652;2022-11-20T05:08:43;27.71;42.04
63899;HTU21D;50070;-32.946;-60.652;2022-11-20T05:11:12;27.74;40.17
63899;HTU21D;50070;-32.946;-60.652;2022-11-20T05:13:39;27.86;39.89
63899;HTU21D;50070;-32.946;-60.652;2022-11-20T05:16:19;27.95;39.11
63899;HTU21D;50070;-32.946;-60.652;2022-11-20T05:18:46;27.90;39.44
63899;HTU21D;50070;-32.946;-60.652;2022-11-20T05:21:13;28.05;38.37
63899;HTU21D;50070;-32.946;-60.652;2022-11-20T05:23:40;28.01;39.27
63899;HTU21D;50070;-32.946;-60.652;2022-11-20T05:26:11;28.03;38.53
63899;HTU21D;50070;-32.946;-60.652;2022-11-20T05:28:38;27.89;39.53
63899;HTU21D;50070;-32.946;-60.652;2022-11-20T05:31:12;27.94;39.79
63899;HTU21D;50070;-32.946;-60.652;2022-11-20T05:33:43;27.95;39.40
63899;HTU21D;50070;-32.946;-60.652;2022-11-20T05:36:12;28.09;39.46
63899;HTU21D;50070;-32.946;-60.652;2022-11-20T05:38:39;28.08;39.66
63899;HTU21D;50070;-32.946;-60.652;2022-11-20T05:41:11;28.02;40.04
63899;HTU21D;50070;-32.946;-60.652;2022-11-20T05:43:40;28.16;39.83
63899;HTU21D;50070;-32.946;-60.652;2022-11-20T05:46:09;27.97;40.19
63899;HTU21D;50070;-32.946;-60.652;2022-11-20T05:48:37;28.05;40.01
63899;HTU21D;50070;-32.946;-60.652;2022-11-20T05:51:06;27.74;41.33
63899;HTU21D;50070;-32.946;-60.652;2022-11-20T05:53:34;27.85;42.02
63899;HTU21D;50070;-32.946;-60.652;2022-11-20T05:56:07;27.35;43.16
63899;HTU21D;50070;-32.946;-60.652;2022-11-20T05:58:34;27.51;43.08
63899;HTU21D;50070;-32.946;-60.652;2022-11-20T06:01:24;27.47;43.08
63899;HTU21D;50070;-32.946;-60.652;2022-11-20T06:03:52;27.72;42.43
63899;HTU21D;50070;-32.946;-60.652;2022-11-20T06:06:20;27.59;42.36
63899;HTU21D;50070;-32.946;-60.652;2022-11-20T06:08:47;27.54;42.33
63899;HTU21D;50070;-32.946;-60.652;2022-11-20T06:11:14;27.44;43.22
63899;HTU21D;50070;-32.946;-60.652;2022-11-20T06:13:42;27.21;42.78
63899;HTU21D;50070;-32.946;-60.652;2022-11-20T06:16:10;27.09;43.09
63899;HTU21D;50070;-32.946;-60.652;2022-11-20T06:18:37;27.20;43.35
63899;HTU21D;50070;-32.946;-60.652;2022-11-20T06:21:19;27.27;43.26
63899;HTU21D;50070;-32.946;-60.652;2022-11-20T06:23:46;27.54;41.84
63899;HTU21D;50070;-32.946;-60.652;2022-11-20T06:26:16;27.68;41.33
63899;HTU21D;50070;-32.946;-60.652;2022-11-20T06:28:44;27.67;41.46
63899;HTU21D;50070;-32.946;-60.652;2022-11-20T06:31:13;27.72;42.02
63899;HTU21D;50070;-32.946;-60.652;2022-11-20T06:33:40;27.65;42.29
63899;HTU21D;50070;-32.946;-60.652;2022-11-20T06:36:07;27.69;41.78
63899;HTU21D;50070;-32.946;-60.652;2022-11-20T06:38:35;27.74;41.63
63899;HTU21D;50070;-32.946;-60.652;2022-11-20T06:41:03;27.76;41.92
63899;HTU21D;50070;-32.946;-60.652;2022-11-20T06:43:30;27.30;44.48
63899;HTU21D;50070;-32.946;-60.652;2022-11-20T06:45:57;27.26;45.02
63899;HTU21D;50070;-32.946;-60.652;2022-11-20T06:48:26;27.39;42.98
63899;HTU21D;50070;-32.946;-60.652;2022-11-20T06:50:53;27.70;41.85
63899;HTU21D;50070;-32.946;-60.652;2022-11-20T06:53:22;27.89;41.42
63899;HTU21D;50070;-32.946;-60.652;2022-11-20T06:55:49;27.81;42.04
63899;HTU21D;50070;-32.946;-60.652;2022-11-20T06:58:16;27.66;42.88
63899;HTU21D;50070;-32.946;-60.652;2022-11-20T07:00:44;27.49;43.91
63899;HTU21D;50070;-32.946;-60.652;2022-11-20T07:03:11;27.42;44.37
63899;HTU21D;50070;-32.946;-60.652;2022-11-20T07:05:38;27.34;44.38
63899;HTU21D;50070;-32.946;-60.652;2022-11-20T07:08:06;27.26;44.55
63899;HTU21D;50070;-32.946;-60.652;2022-11-20T07:10:32;27.46;43.90
63899;HTU21D;50070;-32.946;-60.652;2022-11-20T07:12:59;27.28;44.07
63899;HTU21D;50070;-32.946;-60.652;2022-11-20T07:15:26;27.07;44.71
63899;HTU21D;50070;-32.946;-60.652;2022-11-20T07:17:52;26.71;45.16
63899;HTU21D;50070;-32.946;-60.652;2022-11-20T07:20:19;27.04;44.64
63899;HTU21D;50070;-32.946;-60.652;2022-11-20T07:22:46;27.15;44.28
63899;HTU21D;50070;-32.946;-60.652;2022-11-20T07:25:12;26.98;44.71
63899;HTU21D;50070;-32.946;-60.652;2022-11-20T07:27:38;26.83;45.35
63899;HTU21D;50070;-32.946;-60.652;2022-11-20T07:30:05;26.96;45.03
63899;HTU21D;50070;-32.946;-60.652;2022-11-20T07:32:32;27.08;44.74
63899;HTU21D;50070;-32.946;-60.652;2022-11-20T07:34:59;27.21;44.33
63899;HTU21D;50070;-32.946;-60.652;2022-11-20T07:37:25;27.10;44.74
63899;HTU21D;50070;-32.946;-60.652;2022-11-20T07:39:52;27.06;45.04
63899;HTU21D;50070;-32.946;-60.652;2022-11-20T07:42:19;27.19;44.78
63899;HTU21D;50070;-32.946;-60.652;2022-11-20T07:44:45;26.98;45.44
63899;HTU21D;50070;-32.946;-60.652;2022-11-20T07:47:12;27.00;45.13
63899;HTU21D;50070;-32.946;-60.652;2022-11-20T07:49:38;27.09;45.00
63899;HTU21D;50070;-32.946;-60.652;2022-11-20T07:52:05;27.30;44.03
63899;HTU21D;50070;-32.946;-60.652;2022-11-20T07:54:32;27.45;43.44
63899;HTU21D;50070;-32.946;-60.652;2022-11-20T07:56:58;27.28;43.46
63899;HTU21D;50070;-32.946;-60.652;2022-11-20T07:59:25;27.31;43.86
63899;HTU21D;50070;-32.946;-60.652;2022-11-20T08:01:51;26.95;45.27
63899;HTU21D;50070;-32.946;-60.652;2022-11-20T08:04:17;27.06;44.97
63899;HTU21D;50070;-32.946;-60.652;2022-11-20T08:06:44;26.84;45.80
63899;HTU21D;50070;-32.946;-60.652;2022-11-20T08:09:11;26.70;46.36
63899;HTU21D;50070;-32.946;-60.652;2022-11-20T08:11:37;26.83;46.28
63899;HTU21D;50070;-32.946;-60.652;2022-11-20T08:14:21;26.95;46.04
63899;HTU21D;50070;-32.946;-60.652;2022-11-20T08:16:49;27.15;45.52
63899;HTU21D;50070;-32.946;-60.652;2022-11-20T08:19:17;27.27;45.32
63899;HTU21D;50070;-32.946;-60.652;2022-11-20T08:21:44;27.32;45.38
63899;HTU21D;50070;-32.946;-60.652;2022-11-20T08:24:12;27.41;45.40
63899;HTU21D;50070;-32.946;-60.652;2022-11-20T08:26:39;27.24;46.08
63899;HTU21D;50070;-32.946;-60.652;2022-11-20T08:29:07;27.20;46.22
63899;HTU21D;50070;-32.946;-60.652;2022-11-20T08:31:33;27.01;46.69
63899;HTU21D;50070;-32.946;-60.652;2022-11-20T08:33:59;27.12;46.27
63899;HTU21D;50070;-32.946;-60.652;2022-11-20T08:36:26;27.17;46.18
63899;HTU21D;50070;-32.946;-60.652;2022-11-20T08:38:54;27.37;44.99
63899;HTU21D;50070;-32.946;-60.652;2022-11-20T08:41:21;27.32;45.48
63899;HTU21D;50070;-32.946;-60.652;2022-11-20T08:43:59;27.29;45.58
63899;HTU21D;50070;-32.946;-60.652;2022-11-20T08:46:30;27.31;46.05
63899;HTU21D;50070;-32.946;-60.652;2022-11-20T08:48:59;27.42;45.11
63899;HTU21D;50070;-32.946;-60.652;2022-11-20T08:51:25;27.51;43.16
63899;HTU21D;50070;-32.946;-60.652;2022-11-20T08:53:51;27.53;43.58
63899;HTU21D;50070;-32.946;-60.652;2022-11-20T08:56:18;27.40;44.22
63899;HTU21D;50070;-32.946;-60.652;2022-11-20T08:58:45;27.27;44.58
63899;HTU21D;50070;-32.946;-60.652;2022-11-20T09:01:11;27.51;43.89
63899;HTU21D;50070;-32.946;-60.652;2022-11-20T09:03:38;27.45;43.55
63899;HTU21D;50070;-32.946;-60.652;2022-11-20T09:06:06;27.44;43.80
63899;HTU21D;50070;-32.946;-60.652;2022-11-20T09:08:33;27.34;44.29
63899;HTU21D;50070;-32.946;-60.652;2022-11-20T09:11:02;27.25;44.25
63899;HTU21D;50070;-32.946;-60.652;2022-11-20T09:13:29;27.41;44.16
63899;HTU21D;50070;-32.946;-60.652;2022-11-20T09:16:01;27.46;44.21
63899;HTU21D;50070;-32.946;-60.652;2022-11-20T09:18:28;27.16;44.93
63899;HTU21D;50070;-32.946;-60.652;2022-11-20T09:20:58;27.12;44.78
63899;HTU21D;50070;-32.946;-60.652;2022-11-20T09:23:26;27.27;44.09
63899;HTU21D;50070;-32.946;-60.652;2022-11-20T09:25:53;27.22;44.00
63899;HTU21D;50070;-32.946;-60.652;2022-11-20T09:28:21;27.16;44.09
63899;HTU21D;50070;-32.946;-60.652;2022-11-20T09:30:48;26.99;44.62
63899;HTU21D;50070;-32.946;-60.652;2022-11-20T09:33:15;27.17;44.25
63899;HTU21D;50070;-32.946;-60.652;2022-11-20T09:35:42;27.21;44.13
63899;HTU21D;50070;-32.946;-60.652;2022-11-20T09:38:09;27.26;44.30
63899;HTU21D;50070;-32.946;-60.652;2022-11-20T09:41:04;26.98;44.84
63899;HTU21D;50070;-32.946;-60.652;2022-11-20T09:46:53;27.06;45.09
63899;HTU21D;50070;-32.946;-60.652;2022-11-20T09:51:59;27.34;44.53
63899;HTU21D;50070;-32.946;-60.652;2022-11-20T09:54:36;27.19;44.96
63899;HTU21D;50070;-32.946;-60.652;2022-11-20T09:57:17;27.05;45.06
63899;HTU21D;50070;-32.946;-60.652;2022-11-20T09:59:56;27.24;44.74
63899;HTU21D;50070;-32.946;-60.652;2022-11-20T10:02:29;27.54;43.93
63899;HTU21D;50070;-32.946;-60.652;2022-11-20T10:05:15;27.70;43.51
63899;HTU21D;50070;-32.946;-60.652;2022-11-20T10:10:46;27.32;45.23
63899;HTU21D;50070;-32.946;-60.652;2022-11-20T10:13:19;27.25;45.37
63899;HTU21D;50070;-32.946;-60.652;2022-11-20T10:19:05;27.12;45.16
63899;HTU21D;50070;-32.946;-60.652;2022-11-20T10:21:41;27.36;44.63
63899;HTU21D;50070;-32.946;-60.652;2022-11-20T10:29:51;27.58;44.30
63899;HTU21D;50070;-32.946;-60.652;2022-11-20T10:32:26;27.39;44.77
63899;HTU21D;50070;-32.946;-60.652;2022-11-20T10:37:27;27.36;45.16
63899;HTU21D;50070;-32.946;-60.652;2022-11-20T10:40:04;27.44;45.06
63899;HTU21D;50070;-32.946;-60.652;2022-11-20T10:42:45;27.72;44.76
63899;HTU21D;50070;-32.946;-60.652;2022-11-20T10:48:04;27.57;45.15
63899;HTU21D;50070;-32.946;-60.652;2022-11-20T10:50:36;27.58;45.12
63899;HTU21D;50070;-32.946;-60.652;2022-11-20T10:53:40;27.66;46.64
63899;HTU21D;50070;-32.946;-60.652;2022-11-20T10:56:45;27.23;49.66
63899;HTU21D;50070;-32.946;-60.652;2022-11-20T10:59:45;26.82;51.93
63899;HTU21D;50070;-32.946;-60.652;2022-11-20T11:02:24;26.87;52.00
63899;HTU21D;50070;-32.946;-60.652;2022-11-20T11:04:53;27.21;50.72
63899;HTU21D;50070;-32.946;-60.652;2022-11-20T11:09:56;27.07;51.32
63899;HTU21D;50070;-32.946;-60.652;2022-11-20T11:12:28;26.94;51.76
63899;HTU21D;50070;-32.946;-60.652;2022-11-20T11:14:56;27.06;51.51
63899;HTU21D;50070;-32.946;-60.652;2022-11-20T11:20:06;27.26;50.79
63899;HTU21D;50070;-32.946;-60.652;2022-11-20T11:23:00;27.32;50.56
63899;HTU21D;50070;-32.946;-60.652;2022-11-20T11:25:35;26.86;51.53
63899;HTU21D;50070;-32.946;-60.652;2022-11-20T11:28:04;26.91;51.23
63899;HTU21D;50070;-32.946;-60.652;2022-11-20T11:30:42;26.84;51.18
63899;HTU21D;50070;-32.946;-60.652;2022-11-20T11:33:17;27.24;50.30
63899;HTU21D;50070;-32.946;-60.652;2022-11-20T11:35:52;27.24;50.32
63899;HTU21D;50070;-32.946;-60.652;2022-11-20T11:38:32;27.30;50.32
63899;HTU21D;50070;-32.946;-60.652;2022-11-20T11:41:01;27.08;50.15
63899;HTU21D;50070;-32.946;-60.652;2022-11-20T11:43:33;27.16;50.29
63899;HTU21D;50070;-32.946;-60.652;2022-11-20T11:46:35;27.53;48.96
63899;HTU21D;50070;-32.946;-60.652;2022-11-20T11:51:53;27.06;50.69
63899;HTU21D;50070;-32.946;-60.652;2022-11-20T11:56:58;27.17;50.36
63899;HTU21D;50070;-32.946;-60.652;2022-11-20T11:59:48;27.46;49.56
63899;HTU21D;50070;-32.946;-60.652;2022-11-20T12:03:09;27.88;48.33
63899;HTU21D;50070;-32.946;-60.652;2022-11-20T12:05:24;28.03;47.75
63899;HTU21D;50070;-32.946;-60.652;2022-11-20T12:08:09;27.99;47.85
63899;HTU21D;50070;-32.946;-60.652;2022-11-20T12:16:03;28.20;47.53
63899;HTU21D;50070;-32.946;-60.652;2022-11-20T12:18:31;27.43;49.56
63899;HTU21D;50070;-32.946;-60.652;2022-11-20T12:24:49;27.47;49.40
63899;HTU21D;50070;-32.946;-60.652;2022-11-20T12:29:56;27.63;49.18
63899;HTU21D;50070;-32.946;-60.652;2022-11-20T12:59:23;27.24;49.63
63899;HTU21D;50070;-32.946;-60.652;2022-11-20T13:02:08;27.26;49.77
63899;HTU21D;50070;-32.946;-60.652;2022-11-20T13:05:15;27.32;49.13
63899;HTU21D;50070;-32.946;-60.652;2022-11-20T13:07:36;27.55;48.67
63899;HTU21D;50070;-32.946;-60.652;2022-11-20T13:10:03;27.26;47.95
63899;HTU21D;50070;-32.946;-60.652;2022-11-20T13:12:45;27.46;47.51
63899;HTU21D;50070;-32.946;-60.652;2022-11-20T13:18:12;27.44;47.68
63899;HTU21D;50070;-32.946;-60.652;2022-11-20T13:20:44;27.49;47.76
63899;HTU21D;50070;-32.946;-60.652;2022-11-20T13:23:11;27.47;48.16
63899;HTU21D;50070;-32.946;-60.652;2022-11-20T13:25:39;27.58;48.20
63899;HTU21D;50070;-32.946;-60.652;2022-11-20T13:30:36;27.72;48.15
63899;HTU21D;50070;-32.946;-60.652;2022-11-20T13:36:06;27.96;47.11
63899;HTU21D;50070;-32.946;-60.652;2022-11-20T13:38:53;28.04;46.63
63899;HTU21D;50070;-32.946;-60.652;2022-11-20T13:44:09;28.10;46.18
63899;HTU21D;50070;-32.946;-60.652;2022-11-20T13:46:42;28.05;46.03
63899;HTU21D;50070;-32.946;-60.652;2022-11-20T13:49:39;27.94;46.16
63899;HTU21D;50070;-32.946;-60.652;2022-11-20T13:52:39;27.90;46.06
63899;HTU21D;50070;-32.946;-60.652;2022-11-20T13:55:31;27.84;45.79
63899;HTU21D;50070;-32.946;-60.652;2022-11-20T14:01:05;28.47;44.14
63899;HTU21D;50070;-32.946;-60.652;2022-11-20T14:03:34;28.18;44.83
63899;HTU21D;50070;-32.946;-60.652;2022-11-20T14:06:04;28.35;44.76
63899;HTU21D;50070;-32.946;-60.652;2022-11-20T14:08:38;28.65;44.93
63899;HTU21D;50070;-32.946;-60.652;2022-11-20T14:11:17;28.57;45.08
63899;HTU21D;50070;-32.946;-60.652;2022-11-20T14:14:19;28.50;45.28
63899;HTU21D;50070;-32.946;-60.652;2022-11-20T14:16:48;28.56;45.11
63899;HTU21D;50070;-32.946;-60.652;2022-11-20T14:21:51;28.21;46.25
63899;HTU21D;50070;-32.946;-60.652;2022-11-20T14:24:23;28.35;46.06
63899;HTU21D;50070;-32.946;-60.652;2022-11-20T14:26:51;28.50;45.83
63899;HTU21D;50070;-32.946;-60.652;2022-11-20T14:29:26;28.45;46.03
63899;HTU21D;50070;-32.946;-60.652;2022-11-20T14:31:55;28.74;45.47
63899;HTU21D;50070;-32.946;-60.652;2022-11-20T14:34:28;28.73;45.37
63899;HTU21D;50070;-32.946;-60.652;2022-11-20T14:37:04;28.80;45.61
63899;HTU21D;50070;-32.946;-60.652;2022-11-20T14:39:37;28.75;45.64
63899;HTU21D;50070;-32.946;-60.652;2022-11-20T14:42:15;28.61;46.27
63899;HTU21D;50070;-32.946;-60.652;2022-11-20T14:44:43;28.56;46.27
63899;HTU21D;50070;-32.946;-60.652;2022-11-20T14:47:13;28.55;46.95
63899;HTU21D;50070;-32.946;-60.652;2022-11-20T14:49:42;28.77;46.44
63899;HTU21D;50070;-32.946;-60.652;2022-11-20T14:52:18;28.80;46.73
63899;HTU21D;50070;-32.946;-60.652;2022-11-20T14:54:47;28.69;47.08
63899;HTU21D;50070;-32.946;-60.652;2022-11-20T14:57:39;28.88;46.59
63899;HTU21D;50070;-32.946;-60.652;2022-11-20T15:00:27;28.93;47.22
63899;HTU21D;50070;-32.946;-60.652;2022-11-20T15:02:53;29.16;47.31
63899;HTU21D;50070;-32.946;-60.652;2022-11-20T15:05:23;29.12;47.42
63899;HTU21D;50070;-32.946;-60.652;2022-11-20T15:08:12;28.78;48.41
63899;HTU21D;50070;-32.946;-60.652;2022-11-20T15:10:39;28.79;48.34
63899;HTU21D;50070;-32.946;-60.652;2022-11-20T15:13:13;28.52;48.92
63899;HTU21D;50070;-32.946;-60.652;2022-11-20T15:15:47;28.57;48.76
63899;HTU21D;50070;-32.946;-60.652;2022-11-20T15:18:23;28.95;47.59
63899;HTU21D;50070;-32.946;-60.652;2022-11-20T15:20:50;29.50;46.48
63899;HTU21D;50070;-32.946;-60.652;2022-11-20T15:23:18;29.03;47.76
63899;HTU21D;50070;-32.946;-60.652;2022-11-20T15:25:46;29.02;47.92
63899;HTU21D;50070;-32.946;-60.652;2022-11-20T15:30:47;28.73;48.43
63899;HTU21D;50070;-32.946;-60.652;2022-11-20T15:33:15;28.97;47.87
63899;HTU21D;50070;-32.946;-60.652;2022-11-20T15:35:43;28.56;48.83
63899;HTU21D;50070;-32.946;-60.652;2022-11-20T15:38:10;28.85;48.50
63899;HTU21D;50070;-32.946;-60.652;2022-11-20T15:40:37;28.75;48.95
63899;HTU21D;50070;-32.946;-60.652;2022-11-20T15:43:03;28.67;49.42
63899;HTU21D;50070;-32.946;-60.652;2022-11-20T15:45:58;28.86;49.02
63899;HTU21D;50070;-32.946;-60.652;2022-11-20T15:48:27;28.69;49.36
63899;HTU21D;50070;-32.946;-60.652;2022-11-20T15:50:59;28.35;50.55
63899;HTU21D;50070;-32.946;-60.652;2022-11-20T15:53:27;28.78;49.31
63899;HTU21D;50070;-32.946;-60.652;2022-11-20T15:55:54;28.61;49.69
63899;HTU21D;50070;-32.946;-60.652;2022-11-20T15:58:21;28.75;49.18
63899;HTU21D;50070;-32.946;-60.652;2022-11-20T16:00:50;28.58;49.69
63899;HTU21D;50070;-32.946;-60.652;2022-11-20T16:03:17;29.00;48.53
63899;HTU21D;50070;-32.946;-60.652;2022-11-20T16:05:45;29.08;48.42
63899;HTU21D;50070;-32.946;-60.652;2022-11-20T16:08:11;28.72;49.24
63899;HTU21D;50070;-32.946;-60.652;2022-11-20T16:10:39;28.09;50.53
63899;HTU21D;50070;-32.946;-60.652;2022-11-20T16:13:13;28.12;50.75
63899;HTU21D;50070;-32.946;-60.652;2022-11-20T16:16:01;28.31;50.20
63899;HTU21D;50070;-32.946;-60.652;2022-11-20T16:18:30;28.11;50.56
63899;HTU21D;50070;-32.946;-60.652;2022-11-20T16:20:57;27.78;51.52
63899;HTU21D;50070;-32.946;-60.652;2022-11-20T16:23:24;27.58;52.04
63899;HTU21D;50070;-32.946;-60.652;2022-11-20T16:25:51;27.70;51.67
63899;HTU21D;50070;-32.946;-60.652;2022-11-20T16:28:18;27.63;51.75
63899;HTU21D;50070;-32.946;-60.652;2022-11-20T16:30:46;27.73;51.53
63899;HTU21D;50070;-32.946;-60.652;2022-11-20T16:33:15;27.41;52.44
63899;HTU21D;50070;-32.946;-60.652;2022-11-20T16:35:43;27.60;51.74
63899;HTU21D;50070;-32.946;-60.652;2022-11-20T16:38:10;27.39;52.26